Gogama, Canada
Current Conditions -  °F | °C
As of 1:00 PM on Monday 20 Oct 2014 (Local Time) from CYTS Reporting Station
Light Rain Light Rain  
Wind Chill: 30°   Ceiling: 900
Heat Index: 37°   Visibility: 15mi
Dew Point: 37°   Wind: 10mph
Humidity: 100%   Direction: 70°ENE
Pressure: 29.81"   Gusts: NA
Location:  47.67°N, 81.72°W
Report Text: CYTS 201700Z 07009KT 15SM -RA SCT006 BKN009 OVC014 03/03 A2981 RMK SF4SF3SC1 SLP109
Loading
Personal Weather Stations






























Interactive Weather Map New forecast layout! Learn more

10-Day Weather Forecast

Advertisements
Track Severe Weather on mobile